Domov               UVHVVR             MKGP            O straneh              
ZDRAVSTVENO VARSTVO RASTLIN
  MREŽA AGROMET. POSTAJ
 ► PROGNOSTIČNA OBVESTILA
AGROMETEOROLOŠKI PODATKI -
ARSO
OBVLADOVANJE TVEGANJ ZARADI
NEUGODNIH VREMENSKIH RAZMER
  ► NARAVNE NESREČE
  ► SUŠA/MOČA
  ► NAMAKANJE
  ► ŽLED (gozdarstvo)
KARTOGRAFSKI PRIKAZI
SPLETNE POVEZAVE
PROJEKTI IN PUBLIKACIJE

AGROMETEOROLOŠKA MREŽA: VREMENSKE POSTAJE IN FENOLOŠKA OPAZOVANJA

Pregled podatkov za lokacijo Labor, meteorološka postaja 42414

Pregled senzorjev na lokaciji

ID Ime Zadnja
vrednost
Datum
zadnje
spremembe
Tip
senzorja
2099 Temperatura 2 m ( °C) 14,17 °C 18.10.2017 17:59 50YA
2100 Relativna vlaga 2 m (% RH) 89,28 % RH 18.10.2017 17:59 50YA
2101 Omočenost lista (U) 10 U 18.10.2017 17:59 A730WET
2102 Padavine 0.2 mm (mm) 0 mm 18.10.2017 18:00 Rain-O-Matic

Pregled podatkov zadnjih 24 ur

Zap.
št.
Datum in čas Labor
Omočenost
lista
Padavine
0.2
mm
Relativna
vlaga
2
m
Temperatura
2
m
0 18.10.2017 17:00 10 0 89,28 14,17
1 18.10.2017 16:30 5 0 86,2 14,92
2 18.10.2017 16:00 1 0 82,88 15,67
3 18.10.2017 15:30 0 0 80,71 16,28
4 18.10.2017 15:00 0 0 78,05 16,89
5 18.10.2017 14:30 0 0 75,98 17,24
6 18.10.2017 14:00 0 0 74,12 17,71
7 18.10.2017 13:30 0 0 72,15 18,09
8 18.10.2017 13:00 0 0 73,52 17,84
9 18.10.2017 12:30 0 0 76,15 17,2
10 18.10.2017 12:00 0 0 78,43 16,82
11 18.10.2017 11:30 0 0 79,26 16,53
12 18.10.2017 11:00 0 0 81,82 15,84
13 18.10.2017 10:30 1 0 85,72 15,03
14 18.10.2017 10:00 1 0 84,19 15,21
15 18.10.2017 09:30 3 0 85,91 14,71
16 18.10.2017 09:00 4 0 85,03 14,76
17 18.10.2017 08:30 1 0 72,47 15,08
18 18.10.2017 08:00 3 0 73,15 14,18
19 18.10.2017 07:30 10 0 83,48 11,91
20 18.10.2017 07:00 10 0 84,01 11,3
21 18.10.2017 06:30 10 0 80,22 11,24
22 18.10.2017 06:00 6 0 68,14 13,13
23 18.10.2017 05:30 10 0 62,86 13,58
24 18.10.2017 05:00 10 0 73,93 12,78
25 18.10.2017 04:30 10 0 76,95 12,91
26 18.10.2017 04:00 10 0 78,76 12,98
27 18.10.2017 03:30 10 0 82,64 13,02
28 18.10.2017 03:00 10 0 85,96 12,76
29 18.10.2017 02:30 10 0 83,93 13,24
30 18.10.2017 02:00 10 0 86,09 13,5
31 18.10.2017 01:30 10 0 86,79 13,57
32 18.10.2017 01:00 10 0 82,95 14,26
33 18.10.2017 00:30 10 0 84,39 14,29
34 18.10.2017 00:00 10 0 84,63 14,36
35 17.10.2017 23:30 10 0 84,37 14,42
36 17.10.2017 23:00 10 0 78,86 15,14
37 17.10.2017 22:30 10 0 76,59 15,26
38 17.10.2017 22:00 10 0 76,75 15,48
39 17.10.2017 21:30 10 0 82,08 15,73
40 17.10.2017 21:00 10 0 79,43 15,89
41 17.10.2017 20:30 10 0 81,76 15,88
42 17.10.2017 20:00 10 0 86,36 15,67
43 17.10.2017 19:30 10 0 88 15,66
44 17.10.2017 19:00 10 0 88,88 15,62
45 17.10.2017 18:30 10 0 90,48 15,56
© 2011 Ministrstvo za kmetijstvo, gozdarstvo in prehrano. Vse pravice pridržane.